Time;durP1;ratioP1;P1;durP2;ratioP2;P2;SDS_P1;SDS_P2;PMS_P1;PMS_P2;Temp;Humidity;BMP_temperature;BMP_pressure;BME280_temperature;BME280_humidity;BME280_pressure;Samples;Min_cycle;Max_cycle;Signal;HPM_P1;HPM_P2
2024/01/15 00:00:34;;;;;;;60.13;26.88;;;;;;;;;;5114548;28;20199;-74
2024/01/15 00:03:01;;;;;;;59.25;24.75;;;;;;;;;;5114178;28;20207;-74
2024/01/15 00:05:27;;;;;;;57.17;25.77;;;;;;;;;;5114008;28;20227;-73
2024/01/15 00:07:54;;;;;;;62.08;27.30;;;;;;;;;;5114469;28;20294;-74
2024/01/15 00:10:20;;;;;;;58.05;26.40;;;;;;;;;;5114063;28;20202;-73
2024/01/15 00:12:47;;;;;;;57.53;26.58;;;;;;;;;;5114182;28;20260;-73
2024/01/15 00:15:14;;;;;;;56.25;26.83;;;;;;;;;;5114334;28;20219;-73
2024/01/15 00:17:40;;;;;;;64.25;26.25;;;;;;;;;;5114167;28;20194;-73
2024/01/15 00:20:07;;;;;;;59.45;25.88;;;;;;;;;;5114018;28;20195;-73
2024/01/15 00:22:35;;;;;;;59.50;26.33;;;;;;;;;;5113634;28;20199;-74
2024/01/15 00:25:01;;;;;;;56.03;25.70;;;;;;;;;;5113100;28;20226;-74
2024/01/15 00:27:28;;;;;;;61.92;27.88;;;;;;;;;;5114012;28;20206;-74
2024/01/15 00:29:55;;;;;;;60.33;26.23;;;;;;;;;;5114031;28;20203;-73
2024/01/15 00:32:21;;;;;;;64.75;26.27;;;;;;;;;;5113701;28;20255;-73
2024/01/15 00:34:48;;;;;;;61.53;26.50;;;;;;;;;;5113570;28;20206;-73
2024/01/15 00:37:14;;;;;;;57.92;26.20;;;;;;;;;;5113533;27;20222;-73
2024/01/15 00:39:40;;;;;;;57.15;24.85;;;;;;;;;;5113420;27;20214;-74
2024/01/15 00:42:07;;;;;;;56.78;25.67;;;;;;;;;;5113662;28;20206;-74
2024/01/15 00:44:33;;;;;;;55.20;25.70;;;;;;;;;;5113455;28;20203;-73
2024/01/15 00:47:01;;;;;;;55.45;24.17;;;;;;;;;;5113487;28;20245;-74
2024/01/15 00:49:28;;;;;;;59.58;27.08;;;;;;;;;;5113281;28;20228;-74
2024/01/15 00:51:54;;;;;;;57.03;26.35;;;;;;;;;;5113103;28;20195;-74
2024/01/15 00:54:20;;;;;;;55.67;25.83;;;;;;;;;;5113575;28;20260;-74
2024/01/15 00:56:46;;;;;;;57.15;24.88;;;;;;;;;;5113170;28;20268;-73
2024/01/15 00:59:14;;;;;;;54.13;25.48;;;;;;;;;;5113476;28;20214;-74
2024/01/15 01:01:42;;;;;;;53.75;24.45;;;;;;;;;;5113138;28;20667;-73
2024/01/15 01:04:10;;;;;;;55.38;26.23;;;;;;;;;;5113257;28;20226;-73
2024/01/15 01:06:36;;;;;;;57.60;25.95;;;;;;;;;;5112535;28;20246;-74
2024/01/15 01:09:03;;;;;;;62.58;26.80;;;;;;;;;;5113202;28;20207;-73
2024/01/15 01:11:29;;;;;;;53.03;24.55;;;;;;;;;;5112805;28;20230;-73
2024/01/15 01:13:56;;;;;;;56.70;25.08;;;;;;;;;;5113067;28;20199;-74
2024/01/15 01:16:22;;;;;;;50.38;23.08;;;;;;;;;;5113436;28;20635;-74
2024/01/15 01:18:49;;;;;;;48.72;23.25;;;;;;;;;;5113016;28;20206;-73
2024/01/15 01:21:16;;;;;;;43.72;21.92;;;;;;;;;;5112451;28;20199;-74
2024/01/15 01:23:43;;;;;;;51.88;23.75;;;;;;;;;;5112859;28;20198;-73
2024/01/15 01:26:09;;;;;;;48.72;21.95;;;;;;;;;;5112668;28;20219;-73
2024/01/15 01:28:35;;;;;;;50.58;21.48;;;;;;;;;;5112790;28;20200;-73
2024/01/15 01:31:01;;;;;;;43.40;20.98;;;;;;;;;;5112962;28;20272;-73
2024/01/15 01:33:28;;;;;;;54.17;23.55;;;;;;;;;;5112533;28;20209;-73
2024/01/15 01:35:54;;;;;;;44.90;21.80;;;;;;;;;;5111916;28;20222;-73
2024/01/15 01:38:21;;;;;;;45.13;20.38;;;;;;;;;;5112647;28;20237;-73
2024/01/15 01:40:48;;;;;;;41.65;20.00;;;;;;;;;;5112757;28;20195;-73
2024/01/15 01:43:14;;;;;;;42.63;20.20;;;;;;;;;;5112927;28;20203;-73
2024/01/15 01:45:40;;;;;;;40.47;19.77;;;;;;;;;;5112506;28;20296;-73
2024/01/15 01:48:07;;;;;;;35.75;17.98;;;;;;;;;;5112777;28;20618;-73
2024/01/15 01:50:33;;;;;;;39.47;17.17;;;;;;;;;;5113539;28;20206;-73
2024/01/15 01:53:00;;;;;;;30.60;15.52;;;;;;;;;;5113507;28;20724;-73
2024/01/15 01:55:30;;;;;;;32.65;15.70;;;;;;;;;;5112771;28;20222;-73
2024/01/15 01:57:56;;;;;;;29.55;14.25;;;;;;;;;;5112169;28;20667;-73
2024/01/15 02:00:23;;;;;;;31.27;15.02;;;;;;;;;;5112311;28;20203;-73
2024/01/15 02:02:50;;;;;;;28.67;13.18;;;;;;;;;;5112098;28;20238;-73
2024/01/15 02:05:19;;;;;;;26.10;13.02;;;;;;;;;;5112396;28;20254;-73
2024/01/15 02:07:45;;;;;;;28.92;14.50;;;;;;;;;;5112346;28;20285;-73
2024/01/15 02:10:11;;;;;;;26.98;13.32;;;;;;;;;;5112231;28;20256;-73
2024/01/15 02:12:39;;;;;;;25.08;12.55;;;;;;;;;;5112060;28;20199;-74
2024/01/15 02:15:05;;;;;;;25.75;13.02;;;;;;;;;;5112074;28;20195;-73
2024/01/15 02:17:32;;;;;;;27.23;12.88;;;;;;;;;;5112168;28;20199;-73
2024/01/15 02:19:58;;;;;;;22.75;12.45;;;;;;;;;;5112396;28;20252;-73
2024/01/15 02:22:24;;;;;;;23.90;12.95;;;;;;;;;;5112281;28;20207;-73
2024/01/15 02:24:52;;;;;;;22.80;11.77;;;;;;;;;;5112386;28;20252;-73
2024/01/15 02:27:19;;;;;;;22.20;11.23;;;;;;;;;;5111777;28;20222;-73
2024/01/15 02:29:45;;;;;;;23.25;11.40;;;;;;;;;;5112042;28;20291;-73
2024/01/15 02:32:12;;;;;;;21.10;10.32;;;;;;;;;;5112121;28;20199;-73
2024/01/15 02:34:38;;;;;;;20.27;10.93;;;;;;;;;;5112090;28;20278;-73
2024/01/15 02:37:04;;;;;;;20.75;11.63;;;;;;;;;;5111841;28;20224;-72
2024/01/15 02:39:31;;;;;;;20.38;11.10;;;;;;;;;;5111981;28;20199;-73
2024/01/15 02:41:58;;;;;;;19.15;10.30;;;;;;;;;;5112098;28;20199;-73
2024/01/15 02:44:24;;;;;;;20.25;10.75;;;;;;;;;;5111907;28;20211;-73
2024/01/15 02:46:51;;;;;;;17.02;10.50;;;;;;;;;;5112796;28;20222;-73
2024/01/15 02:49:17;;;;;;;18.90;10.48;;;;;;;;;;5115909;28;20199;-72
2024/01/15 02:51:43;;;;;;;20.88;12.00;;;;;;;;;;5115761;28;20199;-72
2024/01/15 02:54:09;;;;;;;25.55;12.73;;;;;;;;;;5115493;28;20196;-73
2024/01/15 02:56:35;;;;;;;23.20;11.88;;;;;;;;;;5115013;28;20260;-73
2024/01/15 02:59:03;;;;;;;26.33;12.55;;;;;;;;;;5115404;28;20202;-72
2024/01/15 03:01:30;;;;;;;24.23;12.00;;;;;;;;;;5115371;28;20211;-73
2024/01/15 03:03:57;;;;;;;21.83;10.50;;;;;;;;;;5115560;28;20203;-73
2024/01/15 03:06:23;;;;;;;20.25;11.00;;;;;;;;;;5115428;28;20237;-73
2024/01/15 03:08:49;;;;;;;17.10;9.80;;;;;;;;;;5115324;28;20202;-73
2024/01/15 03:11:16;;;;;;;21.42;10.02;;;;;;;;;;5115508;28;20248;-73
2024/01/15 03:13:42;;;;;;;20.02;10.07;;;;;;;;;;5115225;28;20210;-73
2024/01/15 03:16:10;;;;;;;19.08;9.50;;;;;;;;;;5115162;28;20215;-73
2024/01/15 03:18:37;;;;;;;17.00;9.18;;;;;;;;;;5115144;28;20203;-73
2024/01/15 03:21:03;;;;;;;18.63;10.18;;;;;;;;;;5115258;28;20462;-73
2024/01/15 03:23:29;;;;;;;15.82;8.77;;;;;;;;;;5115058;28;20199;-73
2024/01/15 03:25:56;;;;;;;18.27;10.10;;;;;;;;;;5114961;28;20283;-73
2024/01/15 03:28:22;;;;;;;19.25;9.93;;;;;;;;;;5114759;28;20203;-73
2024/01/15 03:30:48;;;;;;;15.25;8.95;;;;;;;;;;5114800;27;20199;-72
2024/01/15 03:33:16;;;;;;;17.20;9.20;;;;;;;;;;5114757;28;20206;-73
2024/01/15 03:35:42;;;;;;;17.02;9.38;;;;;;;;;;5115216;27;20215;-73
2024/01/15 03:38:08;;;;;;;18.08;10.13;;;;;;;;;;5114774;28;20260;-73
2024/01/15 03:40:35;;;;;;;16.85;9.10;;;;;;;;;;5114744;28;20663;-74
2024/01/15 03:43:01;;;;;;;16.10;8.80;;;;;;;;;;5114589;28;20262;-73
2024/01/15 03:45:27;;;;;;;17.92;8.48;;;;;;;;;;5114907;28;20284;-73
2024/01/15 03:47:53;;;;;;;17.08;9.07;;;;;;;;;;5114668;28;20214;-73
2024/01/15 03:50:21;;;;;;;18.50;9.82;;;;;;;;;;5114651;28;20252;-74
2024/01/15 03:52:47;;;;;;;17.55;9.05;;;;;;;;;;5114556;28;20202;-73
2024/01/15 03:55:13;;;;;;;19.25;9.85;;;;;;;;;;5114455;28;20239;-73
2024/01/15 03:57:40;;;;;;;17.38;9.70;;;;;;;;;;5114281;28;20256;-73
2024/01/15 04:00:08;;;;;;;16.63;9.68;;;;;;;;;;5113595;28;20207;-73
2024/01/15 04:02:34;;;;;;;21.98;10.32;;;;;;;;;;5114088;28;20582;-74
2024/01/15 04:05:00;;;;;;;15.80;9.15;;;;;;;;;;5114314;28;20199;-73
2024/01/15 04:07:28;;;;;;;16.85;9.38;;;;;;;;;;5114028;28;20223;-73
2024/01/15 04:09:54;;;;;;;16.58;9.60;;;;;;;;;;5114078;28;20625;-74
2024/01/15 04:12:20;;;;;;;17.67;9.30;;;;;;;;;;5114441;28;20249;-73
2024/01/15 04:14:47;;;;;;;18.50;9.77;;;;;;;;;;5117667;28;20209;-73
2024/01/15 04:17:13;;;;;;;17.92;9.65;;;;;;;;;;5117576;28;20215;-73
2024/01/15 04:19:39;;;;;;;17.20;9.32;;;;;;;;;;5114420;28;20248;-73
2024/01/15 04:22:05;;;;;;;18.77;9.75;;;;;;;;;;5113768;28;20209;-73
2024/01/15 04:24:33;;;;;;;20.30;9.85;;;;;;;;;;5115192;28;20243;-74
2024/01/15 04:26:59;;;;;;;16.48;9.15;;;;;;;;;;5115686;28;20644;-73
2024/01/15 04:29:26;;;;;;;17.77;9.52;;;;;;;;;;5114323;28;20279;-74
2024/01/15 04:31:52;;;;;;;15.73;9.15;;;;;;;;;;5113767;28;20203;-73
2024/01/15 04:34:19;;;;;;;17.40;9.43;;;;;;;;;;5113809;28;20210;-73
2024/01/15 04:36:45;;;;;;;19.40;9.27;;;;;;;;;;5113831;28;20302;-73
2024/01/15 04:39:11;;;;;;;23.13;10.50;;;;;;;;;;5113484;28;20203;-73
2024/01/15 04:41:39;;;;;;;19.88;9.63;;;;;;;;;;5113300;27;20207;-73
2024/01/15 04:44:05;;;;;;;17.45;9.80;;;;;;;;;;5113995;28;20256;-73
2024/01/15 04:46:31;;;;;;;23.67;11.05;;;;;;;;;;5113178;27;20249;-73
2024/01/15 04:48:57;;;;;;;17.70;9.43;;;;;;;;;;5113348;28;20203;-73
2024/01/15 04:51:24;;;;;;;18.40;9.45;;;;;;;;;;5112956;28;20221;-73
2024/01/15 04:53:50;;;;;;;19.80;10.13;;;;;;;;;;5113428;28;20256;-73
2024/01/15 04:56:16;;;;;;;20.23;10.00;;;;;;;;;;5113341;28;20268;-74
2024/01/15 04:58:44;;;;;;;19.02;9.80;;;;;;;;;;5113123;28;20202;-74
2024/01/15 05:01:10;;;;;;;21.25;9.43;;;;;;;;;;5113146;28;20195;-74
2024/01/15 05:03:37;;;;;;;16.92;9.02;;;;;;;;;;5113394;28;20203;-74
2024/01/15 05:06:03;;;;;;;16.13;8.98;;;;;;;;;;5112889;28;20264;-73
2024/01/15 05:08:29;;;;;;;17.15;8.88;;;;;;;;;;5112985;28;20286;-73
2024/01/15 05:10:56;;;;;;;20.33;9.00;;;;;;;;;;5112933;28;20232;-73
2024/01/15 05:13:22;;;;;;;17.88;9.00;;;;;;;;;;5113014;28;20203;-73
2024/01/15 05:15:49;;;;;;;17.73;9.25;;;;;;;;;;5113025;28;20222;-73
2024/01/15 05:18:16;;;;;;;20.33;9.95;;;;;;;;;;5112804;28;20240;-73
2024/01/15 05:20:43;;;;;;;19.20;9.57;;;;;;;;;;5112678;28;20203;-73
2024/01/15 05:23:09;;;;;;;16.60;9.00;;;;;;;;;;5112892;28;20295;-73
2024/01/15 05:25:35;;;;;;;18.65;9.55;;;;;;;;;;5112317;28;20283;-73
2024/01/15 05:28:02;;;;;;;17.50;9.43;;;;;;;;;;5112581;28;20351;-72
2024/01/15 05:30:28;;;;;;;18.75;9.25;;;;;;;;;;5112782;28;20210;-73
2024/01/15 05:32:57;;;;;;;17.05;9.80;;;;;;;;;;5112388;28;20202;-73
2024/01/15 05:35:23;;;;;;;19.08;9.68;;;;;;;;;;5112316;28;20302;-73
2024/01/15 05:37:49;;;;;;;20.10;9.07;;;;;;;;;;5112308;28;20617;-73
2024/01/15 05:40:16;;;;;;;17.83;9.90;;;;;;;;;;5112547;28;20268;-74
2024/01/15 05:42:42;;;;;;;21.13;10.60;;;;;;;;;;5112406;28;20207;-73
2024/01/15 05:45:09;;;;;;;19.92;10.23;;;;;;;;;;5112324;28;20678;-73
2024/01/15 05:47:35;;;;;;;20.92;10.70;;;;;;;;;;5112125;28;20218;-73
2024/01/15 05:50:03;;;;;;;17.38;9.18;;;;;;;;;;5112513;28;20199;-73
2024/01/15 05:52:29;;;;;;;20.95;10.25;;;;;;;;;;5112240;28;20195;-72
2024/01/15 05:54:55;;;;;;;22.40;10.15;;;;;;;;;;5111960;28;20592;-72
2024/01/15 05:57:21;;;;;;;19.10;9.88;;;;;;;;;;5112067;28;20218;-72
2024/01/15 05:59:48;;;;;;;20.30;10.30;;;;;;;;;;5112289;28;20574;-72
2024/01/15 06:02:14;;;;;;;19.13;10.50;;;;;;;;;;5112146;28;20289;-72
2024/01/15 06:04:40;;;;;;;18.48;10.25;;;;;;;;;;5112038;28;20589;-72
2024/01/15 06:07:08;;;;;;;19.50;10.02;;;;;;;;;;5112128;28;20299;-72
2024/01/15 06:09:34;;;;;;;19.23;9.85;;;;;;;;;;5112269;28;20202;-73
2024/01/15 06:12:00;;;;;;;18.15;9.40;;;;;;;;;;5112126;28;20207;-72
2024/01/15 06:14:26;;;;;;;15.73;9.10;;;;;;;;;;5112255;28;20210;-72
2024/01/15 06:16:53;;;;;;;19.73;9.88;;;;;;;;;;5111760;28;20211;-72
2024/01/15 06:19:19;;;;;;;15.85;9.38;;;;;;;;;;5112230;28;20255;-72
2024/01/15 06:21:45;;;;;;;18.83;9.95;;;;;;;;;;5112860;28;20242;-73
2024/01/15 06:24:13;;;;;;;17.65;9.32;;;;;;;;;;5115963;28;20551;-72
2024/01/15 06:26:39;;;;;;;16.10;9.73;;;;;;;;;;5115610;28;20318;-72
2024/01/15 06:29:06;;;;;;;19.55;10.48;;;;;;;;;;5115974;28;20626;-72
2024/01/15 06:31:32;;;;;;;13.75;8.60;;;;;;;;;;5115698;28;20218;-72
2024/01/15 06:33:58;;;;;;;18.27;9.48;;;;;;;;;;5115851;28;20616;-73
2024/01/15 06:36:25;;;;;;;18.13;9.90;;;;;;;;;;5115758;27;20710;-72
2024/01/15 06:38:51;;;;;;;22.02;10.75;;;;;;;;;;5115769;28;20203;-72
2024/01/15 06:41:18;;;;;;;18.27;9.65;;;;;;;;;;5115761;28;20267;-72
2024/01/15 06:43:45;;;;;;;20.58;11.15;;;;;;;;;;5116091;27;20215;-72
2024/01/15 06:46:11;;;;;;;20.52;9.32;;;;;;;;;;5115866;28;20280;-72
2024/01/15 06:48:37;;;;;;;19.58;9.90;;;;;;;;;;5115720;28;20225;-72
2024/01/15 06:51:04;;;;;;;17.60;10.32;;;;;;;;;;5115503;28;20198;-61
2024/01/15 06:53:30;;;;;;;14.95;8.93;;;;;;;;;;5115641;28;20199;-61
2024/01/15 06:55:56;;;;;;;17.67;9.95;;;;;;;;;;5115267;28;20226;-61
2024/01/15 06:58:24;;;;;;;18.67;9.95;;;;;;;;;;5115291;28;20199;-60
2024/01/15 07:00:50;;;;;;;19.38;10.30;;;;;;;;;;5115278;28;20248;-60
2024/01/15 07:03:16;;;;;;;16.98;9.05;;;;;;;;;;5114975;28;20218;-60
2024/01/15 07:05:43;;;;;;;18.33;9.73;;;;;;;;;;5115223;28;20223;-60
2024/01/15 07:08:09;;;;;;;18.25;9.43;;;;;;;;;;5115044;28;20222;-61
2024/01/15 07:10:35;;;;;;;17.52;9.43;;;;;;;;;;5115516;28;20207;-61
2024/01/15 07:13:02;;;;;;;16.40;9.40;;;;;;;;;;5115930;28;20264;-60
2024/01/15 07:15:29;;;;;;;17.83;9.07;;;;;;;;;;5114845;28;20248;-60
2024/01/15 07:17:56;;;;;;;14.95;9.27;;;;;;;;;;5108380;28;20211;-61
2024/01/15 07:20:22;;;;;;;17.20;8.70;;;;;;;;;;5113952;28;20215;-61
2024/01/15 07:22:48;;;;;;;14.90;8.45;;;;;;;;;;5114019;28;20228;-61
2024/01/15 07:25:14;;;;;;;13.10;8.40;;;;;;;;;;5113463;27;20663;-62
2024/01/15 07:27:44;;;;;;;18.88;8.55;;;;;;;;;;5112376;28;20230;-62
2024/01/15 07:30:10;;;;;;;11.30;7.60;;;;;;;;;;5108895;28;20627;-61
2024/01/15 07:32:38;;;;;;;13.45;6.57;;;;;;;;;;5108895;28;20729;-60
2024/01/15 07:35:05;;;;;;;11.75;6.60;;;;;;;;;;5107311;28;20203;-60
2024/01/15 07:37:32;;;;;;;15.70;7.63;;;;;;;;;;5105634;28;20736;-61
2024/01/15 07:39:58;;;;;;;12.55;8.32;;;;;;;;;;5106856;28;20210;-61
2024/01/15 07:42:24;;;;;;;13.93;7.13;;;;;;;;;;5106994;28;20203;-60
2024/01/15 07:44:51;;;;;;;14.20;7.60;;;;;;;;;;5107499;28;20260;-59
2024/01/15 07:47:17;;;;;;;13.15;7.45;;;;;;;;;;5106859;28;20763;-59
2024/01/15 07:49:45;;;;;;;13.13;7.70;;;;;;;;;;5107680;28;20215;-62
2024/01/15 07:52:12;;;;;;;12.60;8.00;;;;;;;;;;5106561;28;20263;-60
2024/01/15 07:54:39;;;;;;;14.30;7.50;;;;;;;;;;5107178;28;20289;-62
2024/01/15 07:57:05;;;;;;;15.05;7.93;;;;;;;;;;5106654;28;20223;-61
2024/01/15 07:59:32;;;;;;;19.15;8.50;;;;;;;;;;5106615;28;20646;-61
2024/01/15 08:01:59;;;;;;;12.40;7.55;;;;;;;;;;5106354;28;20222;-61
2024/01/15 08:04:25;;;;;;;15.38;7.70;;;;;;;;;;5092254;28;20687;-61
2024/01/15 08:06:53;;;;;;;11.27;7.05;;;;;;;;;;5105660;28;20265;-63
2024/01/15 08:09:19;;;;;;;10.13;7.35;;;;;;;;;;5106837;28;20203;-61
2024/01/15 08:11:46;;;;;;;11.93;7.70;;;;;;;;;;5106807;28;20773;-62
2024/01/15 08:14:13;;;;;;;12.13;7.47;;;;;;;;;;5106339;28;20206;-61
2024/01/15 08:16:40;;;;;;;12.50;7.88;;;;;;;;;;5106359;28;20245;-61
2024/01/15 08:19:06;;;;;;;13.30;7.18;;;;;;;;;;5106217;28;20207;-60
2024/01/15 08:21:32;;;;;;;13.43;8.25;;;;;;;;;;5105864;28;20210;-62
2024/01/15 08:24:00;;;;;;;13.77;7.47;;;;;;;;;;5106222;27;20303;-63
2024/01/15 08:26:27;;;;;;;13.35;7.40;;;;;;;;;;5106139;28;20275;-63
2024/01/15 08:28:53;;;;;;;13.93;7.30;;;;;;;;;;5106402;28;20230;-61
2024/01/15 08:31:19;;;;;;;12.82;6.70;;;;;;;;;;5107178;28;20215;-63
2024/01/15 08:33:45;;;;;;;11.35;7.53;;;;;;;;;;5107885;27;20210;-63
2024/01/15 08:36:12;;;;;;;11.55;6.63;;;;;;;;;;5106488;28;20258;-61
2024/01/15 08:38:38;;;;;;;10.88;6.38;;;;;;;;;;5105543;28;20211;-60
2024/01/15 08:41:05;;;;;;;10.40;7.15;;;;;;;;;;5106128;28;20206;-61
2024/01/15 08:43:32;;;;;;;12.38;6.57;;;;;;;;;;5106229;28;20214;-62
2024/01/15 08:45:59;;;;;;;13.90;7.43;;;;;;;;;;5105626;28;20284;-62
2024/01/15 08:48:27;;;;;;;11.90;7.45;;;;;;;;;;5105390;28;20226;-62
2024/01/15 08:50:53;;;;;;;8.48;6.00;;;;;;;;;;5105473;28;20675;-62
2024/01/15 08:53:19;;;;;;;12.82;7.00;;;;;;;;;;5105146;28;20676;-62
2024/01/15 08:55:46;;;;;;;14.88;7.15;;;;;;;;;;5105221;28;20497;-60
2024/01/15 08:58:13;;;;;;;12.25;6.80;;;;;;;;;;5105738;28;20279;-61
2024/01/15 09:00:39;;;;;;;10.27;6.50;;;;;;;;;;5105036;28;20276;-61
2024/01/15 09:03:06;;;;;;;10.77;6.30;;;;;;;;;;5104591;28;20653;-61
2024/01/15 09:05:32;;;;;;;13.02;6.45;;;;;;;;;;5104947;28;20314;-60
2024/01/15 09:07:58;;;;;;;11.13;6.20;;;;;;;;;;5104492;28;20223;-61
2024/01/15 09:10:25;;;;;;;10.13;5.78;;;;;;;;;;5105462;28;20322;-61
2024/01/15 09:12:51;;;;;;;9.38;6.22;;;;;;;;;;5105229;28;20318;-61
2024/01/15 09:15:19;;;;;;;10.30;6.45;;;;;;;;;;5105322;28;20223;-62
2024/01/15 09:17:46;;;;;;;9.45;5.75;;;;;;;;;;5100135;28;20203;-61
2024/01/15 09:20:12;;;;;;;10.40;4.93;;;;;;;;;;5105294;27;20248;-62
2024/01/15 09:22:40;;;;;;;9.38;5.70;;;;;;;;;;5105331;28;20578;-61
2024/01/15 09:25:07;;;;;;;13.20;5.78;;;;;;;;;;5104932;28;20653;-63
2024/01/15 09:27:34;;;;;;;9.27;5.45;;;;;;;;;;5105686;28;20226;-62
2024/01/15 09:30:00;;;;;;;10.05;5.45;;;;;;;;;;5105180;28;20203;-63
2024/01/15 09:32:27;;;;;;;9.40;4.88;;;;;;;;;;5105397;28;20199;-62
2024/01/15 09:34:54;;;;;;;10.45;5.72;;;;;;;;;;5104739;28;20207;-61
2024/01/15 09:37:20;;;;;;;9.30;5.25;;;;;;;;;;5104819;28;20211;-62
2024/01/15 09:39:48;;;;;;;9.05;5.47;;;;;;;;;;5104668;28;20264;-60
2024/01/15 09:42:14;;;;;;;11.57;5.43;;;;;;;;;;5104674;28;20209;-61
2024/01/15 09:44:41;;;;;;;9.57;4.57;;;;;;;;;;5105300;28;20218;-61
2024/01/15 09:47:07;;;;;;;9.13;4.43;;;;;;;;;;5105057;28;20223;-62
2024/01/15 09:49:35;;;;;;;7.75;4.18;;;;;;;;;;5105144;28;20276;-61
2024/01/15 09:52:02;;;;;;;9.93;4.63;;;;;;;;;;5104724;28;20627;-60
2024/01/15 09:54:28;;;;;;;9.52;4.65;;;;;;;;;;5104240;28;20203;-61
2024/01/15 09:56:55;;;;;;;9.57;4.85;;;;;;;;;;5106315;28;20275;-60
2024/01/15 09:59:23;;;;;;;9.27;5.18;;;;;;;;;;5109782;28;20206;-61
2024/01/15 10:01:51;;;;;;;5.70;3.97;;;;;;;;;;5108480;28;20215;-60
2024/01/15 10:04:18;;;;;;;11.80;4.75;;;;;;;;;;5109674;28;20755;-60
2024/01/15 10:06:46;;;;;;;9.73;4.57;;;;;;;;;;5108775;28;20223;-60
2024/01/15 10:09:14;;;;;;;9.40;5.13;;;;;;;;;;5108601;28;20356;-60
2024/01/15 10:11:41;;;;;;;10.05;5.07;;;;;;;;;;5108958;28;20294;-60
2024/01/15 10:14:07;;;;;;;9.90;4.60;;;;;;;;;;5109282;28;20202;-59
2024/01/15 10:16:33;;;;;;;11.20;4.38;;;;;;;;;;5108802;28;20295;-60
2024/01/15 10:18:59;;;;;;;8.82;4.80;;;;;;;;;;5108659;27;20655;-62
2024/01/15 10:21:26;;;;;;;6.55;4.25;;;;;;;;;;5108738;28;20574;-60
2024/01/15 10:23:54;;;;;;;10.98;4.28;;;;;;;;;;5108733;28;20210;-62
2024/01/15 10:26:25;;;;;;;10.65;4.47;;;;;;;;;;5108691;28;20583;-57
2024/01/15 10:28:52;;;;;;;6.38;4.30;;;;;;;;;;5109163;28;20284;-61
2024/01/15 10:31:19;;;;;;;6.78;4.40;;;;;;;;;;5108065;28;20207;-61
2024/01/15 10:33:45;;;;;;;11.50;4.72;;;;;;;;;;5109042;27;20756;-61
2024/01/15 10:36:11;;;;;;;8.57;4.38;;;;;;;;;;5108374;28;20279;-61
2024/01/15 10:38:38;;;;;;;7.40;4.10;;;;;;;;;;5108016;28;20221;-60
2024/01/15 10:41:05;;;;;;;10.65;4.65;;;;;;;;;;5107993;28;20270;-61
2024/01/15 10:43:32;;;;;;;7.60;4.53;;;;;;;;;;5108552;28;20215;-62
2024/01/15 10:45:58;;;;;;;9.77;4.93;;;;;;;;;;5108410;28;20223;-59
2024/01/15 10:48:26;;;;;;;8.70;4.30;;;;;;;;;;5107872;28;20272;-59
2024/01/15 10:50:52;;;;;;;6.72;4.38;;;;;;;;;;5108369;28;20433;-62
2024/01/15 10:53:19;;;;;;;4.78;4.20;;;;;;;;;;5108615;28;20276;-62
2024/01/15 10:55:48;;;;;;;7.47;4.47;;;;;;;;;;5107923;28;20232;-61
2024/01/15 10:58:16;;;;;;;9.35;4.30;;;;;;;;;;5108144;28;20230;-64
2024/01/15 11:00:42;;;;;;;8.13;3.92;;;;;;;;;;5108194;28;20207;-61
2024/01/15 11:03:08;;;;;;;11.38;4.65;;;;;;;;;;5108619;28;20215;-60
2024/01/15 11:05:35;;;;;;;9.68;4.35;;;;;;;;;;5107956;27;20292;-60
2024/01/15 11:08:02;;;;;;;6.63;4.20;;;;;;;;;;5106599;28;20290;-60
2024/01/15 11:10:41;;;;;;;6.55;4.72;;;;;;;;;;5108350;27;20235;-61
2024/01/15 11:13:09;;;;;;;10.43;4.03;;;;;;;;;;5108320;28;20309;-61
2024/01/15 11:15:55;;;;;;;8.15;4.50;;;;;;;;;;5109817;28;20229;-61
2024/01/15 11:18:22;;;;;;;8.65;4.90;;;;;;;;;;5110567;28;20222;-62
2024/01/15 11:21:03;;;;;;;6.07;4.47;;;;;;;;;;5108919;28;20203;-62
2024/01/15 11:23:43;;;;;;;7.28;4.35;;;;;;;;;;5091833;28;20215;-61
2024/01/15 11:26:27;;;;;;;5.05;3.95;;;;;;;;;;5106683;28;20617;-60
2024/01/15 11:28:53;;;;;;;11.07;4.25;;;;;;;;;;5108073;28;20223;-59
2024/01/15 11:31:21;;;;;;;9.20;4.57;;;;;;;;;;5106811;28;20550;-61
2024/01/15 11:33:49;;;;;;;7.93;4.38;;;;;;;;;;5107841;28;20206;-60
2024/01/15 11:36:15;;;;;;;6.32;4.45;;;;;;;;;;5107125;28;20235;-60
2024/01/15 11:38:41;;;;;;;10.10;5.00;;;;;;;;;;5107229;27;20626;-60
2024/01/15 11:41:14;;;;;;;10.52;5.28;;;;;;;;;;5106594;28;20640;-59
2024/01/15 11:43:40;;;;;;;8.77;4.30;;;;;;;;;;5107116;28;20207;-61
2024/01/15 11:46:11;;;;;;;7.22;4.55;;;;;;;;;;5107184;28;20272;-61
2024/01/15 11:48:43;;;;;;;5.75;4.57;;;;;;;;;;5107255;28;20957;-62
2024/01/15 11:51:11;;;;;;;10.15;4.72;;;;;;;;;;5107365;28;20234;-62
2024/01/15 11:53:41;;;;;;;7.63;4.10;;;;;;;;;;5106385;28;20207;-60
2024/01/15 11:56:12;;;;;;;6.40;4.20;;;;;;;;;;5107238;28;20274;-61
2024/01/15 11:58:39;;;;;;;6.05;3.72;;;;;;;;;;5107049;28;20214;-61
2024/01/15 12:01:05;;;;;;;7.32;3.80;;;;;;;;;;5106334;28;20280;-62
2024/01/15 12:03:33;;;;;;;5.25;4.10;;;;;;;;;;5106904;28;20206;-62
2024/01/15 12:06:01;;;;;;;5.18;4.35;;;;;;;;;;5105829;28;20227;-60
2024/01/15 12:08:27;;;;;;;4.13;3.72;;;;;;;;;;5106404;28;20222;-61
2024/01/15 12:10:54;;;;;;;9.05;4.20;;;;;;;;;;5106391;28;20744;-61
2024/01/15 12:13:21;;;;;;;7.15;4.68;;;;;;;;;;5106565;28;20252;-61
2024/01/15 12:15:48;;;;;;;4.18;3.78;;;;;;;;;;5106458;28;20238;-62
2024/01/15 12:18:15;;;;;;;6.95;4.40;;;;;;;;;;5106674;28;20446;-63
2024/01/15 12:20:42;;;;;;;6.53;4.03;;;;;;;;;;5105600;28;20207;-61
2024/01/15 12:23:11;;;;;;;5.47;4.28;;;;;;;;;;5106717;28;20207;-61
2024/01/15 12:25:38;;;;;;;6.93;4.13;;;;;;;;;;5106540;28;20699;-60
2024/01/15 12:28:04;;;;;;;7.35;4.60;;;;;;;;;;5106630;28;20624;-61
2024/01/15 12:30:32;;;;;;;7.90;4.90;;;;;;;;;;5106262;28;20521;-60
2024/01/15 12:32:58;;;;;;;6.55;4.60;;;;;;;;;;5106577;28;20207;-63
2024/01/15 12:35:26;;;;;;;8.32;5.00;;;;;;;;;;5105916;28;20485;-61
2024/01/15 12:37:52;;;;;;;6.82;5.35;;;;;;;;;;5106012;28;20776;-61
2024/01/15 12:40:20;;;;;;;5.85;4.30;;;;;;;;;;5105596;28;20206;-64
2024/01/15 12:42:47;;;;;;;7.90;5.15;;;;;;;;;;5105113;28;20305;-62
2024/01/15 12:45:13;;;;;;;8.27;5.07;;;;;;;;;;5105241;28;20280;-62
2024/01/15 12:47:39;;;;;;;9.27;6.05;;;;;;;;;;5105360;28;20294;-61
2024/01/15 12:50:07;;;;;;;10.00;5.95;;;;;;;;;;5105341;28;20223;-62
2024/01/15 12:52:33;;;;;;;7.07;5.47;;;;;;;;;;5105298;28;20218;-61
2024/01/15 12:54:59;;;;;;;9.65;5.97;;;;;;;;;;5105038;28;20214;-61
2024/01/15 12:57:27;;;;;;;7.82;5.72;;;;;;;;;;5106044;28;21158;-61
2024/01/15 12:59:55;;;;;;;11.02;6.32;;;;;;;;;;5105410;28;20707;-62
2024/01/15 13:02:21;;;;;;;7.63;5.63;;;;;;;;;;5105460;28;20603;-61
2024/01/15 13:04:47;;;;;;;8.85;6.53;;;;;;;;;;5105718;28;20617;-61
2024/01/15 13:07:13;;;;;;;9.32;5.85;;;;;;;;;;5104724;28;20241;-60
2024/01/15 13:09:41;;;;;;;8.15;5.93;;;;;;;;;;5105016;28;20223;-61
2024/01/15 13:12:07;;;;;;;10.95;6.13;;;;;;;;;;5104344;28;20491;-61
2024/01/15 13:14:36;;;;;;;10.77;6.28;;;;;;;;;;5105561;28;20207;-60
2024/01/15 13:17:03;;;;;;;9.40;5.57;;;;;;;;;;5104639;28;20754;-61
2024/01/15 13:19:29;;;;;;;11.98;6.63;;;;;;;;;;5105890;28;20212;-61
2024/01/15 13:21:58;;;;;;;8.88;5.93;;;;;;;;;;5104930;28;20256;-61
2024/01/15 13:24:24;;;;;;;10.30;6.50;;;;;;;;;;5104564;28;20425;-61
2024/01/15 13:26:51;;;;;;;9.18;6.13;;;;;;;;;;5105395;28;20231;-61
2024/01/15 13:29:17;;;;;;;12.43;6.50;;;;;;;;;;5105065;28;20230;-60
2024/01/15 13:31:46;;;;;;;9.00;6.20;;;;;;;;;;5105084;28;20438;-62
2024/01/15 13:34:12;;;;;;;8.32;6.88;;;;;;;;;;5105023;28;20593;-60
2024/01/15 13:36:38;;;;;;;9.73;6.22;;;;;;;;;;5105021;28;20741;-61
2024/01/15 13:39:08;;;;;;;10.55;7.05;;;;;;;;;;5105851;28;20260;-62
2024/01/15 13:41:34;;;;;;;10.18;6.40;;;;;;;;;;5105672;28;20758;-64
2024/01/15 13:44:00;;;;;;;9.57;6.40;;;;;;;;;;5104548;28;20635;-60
2024/01/15 13:46:27;;;;;;;11.20;5.95;;;;;;;;;;5102958;28;20909;-62
2024/01/15 13:48:54;;;;;;;10.90;5.60;;;;;;;;;;5103089;28;20211;-62
2024/01/15 13:51:23;;;;;;;7.60;5.80;;;;;;;;;;5102961;28;20280;-61
2024/01/15 13:53:49;;;;;;;8.70;5.78;;;;;;;;;;5102876;28;20207;-62
2024/01/15 13:56:15;;;;;;;8.52;5.68;;;;;;;;;;5098749;28;20297;-62
2024/01/15 13:58:42;;;;;;;6.82;5.50;;;;;;;;;;5103474;28;20215;-61
2024/01/15 14:01:09;;;;;;;7.88;4.88;;;;;;;;;;5104314;28;20206;-61
2024/01/15 14:03:35;;;;;;;8.30;4.93;;;;;;;;;;5104937;28;20229;-61
2024/01/15 14:06:04;;;;;;;10.50;5.15;;;;;;;;;;5103934;28;20215;-61
2024/01/15 14:08:30;;;;;;;9.73;5.00;;;;;;;;;;5104645;28;20218;-61
2024/01/15 14:10:57;;;;;;;9.05;5.22;;;;;;;;;;5105007;28;20219;-61
2024/01/15 14:13:23;;;;;;;6.15;4.55;;;;;;;;;;5104949;28;20207;-61
2024/01/15 14:15:50;;;;;;;6.90;4.13;;;;;;;;;;5104346;28;20222;-60
2024/01/15 14:18:17;;;;;;;6.60;4.82;;;;;;;;;;5104640;28;20207;-61
2024/01/15 14:20:43;;;;;;;5.88;5.22;;;;;;;;;;5104579;28;20729;-61
2024/01/15 14:23:11;;;;;;;10.25;5.38;;;;;;;;;;5104766;28;20211;-61
2024/01/15 14:25:37;;;;;;;10.88;5.68;;;;;;;;;;5104788;28;20231;-61
2024/01/15 14:28:03;;;;;;;11.20;5.13;;;;;;;;;;5104571;28;20211;-61